sensor_id;sensor_type;location;lat;lon;timestamp;temperature;humidity
15426;DHT22;7812;50.072;7.036;2024-03-06T00:02:01;4.30;99.90
15426;DHT22;7812;50.072;7.036;2024-03-06T00:04:28;4.30;99.90
15426;DHT22;7812;50.072;7.036;2024-03-06T00:06:53;4.40;99.90
15426;DHT22;7812;50.072;7.036;2024-03-06T00:09:20;4.20;99.90
15426;DHT22;7812;50.072;7.036;2024-03-06T00:11:46;4.20;99.90
15426;DHT22;7812;50.072;7.036;2024-03-06T00:14:12;4.30;99.90
15426;DHT22;7812;50.072;7.036;2024-03-06T00:16:38;4.30;99.90
15426;DHT22;7812;50.072;7.036;2024-03-06T00:19:04;4.00;99.90
15426;DHT22;7812;50.072;7.036;2024-03-06T00:21:29;3.90;99.90
15426;DHT22;7812;50.072;7.036;2024-03-06T00:23:55;3.90;99.90
15426;DHT22;7812;50.072;7.036;2024-03-06T00:26:21;4.00;99.90
15426;DHT22;7812;50.072;7.036;2024-03-06T00:28:47;4.00;99.90
15426;DHT22;7812;50.072;7.036;2024-03-06T00:31:13;3.90;99.90
15426;DHT22;7812;50.072;7.036;2024-03-06T00:33:40;3.90;99.90
15426;DHT22;7812;50.072;7.036;2024-03-06T00:36:06;4.00;99.90
15426;DHT22;7812;50.072;7.036;2024-03-06T00:38:32;4.00;99.90
15426;DHT22;7812;50.072;7.036;2024-03-06T00:40:57;3.90;99.90
15426;DHT22;7812;50.072;7.036;2024-03-06T00:43:23;3.70;99.90
15426;DHT22;7812;50.072;7.036;2024-03-06T00:45:49;3.70;99.90
15426;DHT22;7812;50.072;7.036;2024-03-06T00:48:14;3.70;99.90
15426;DHT22;7812;50.072;7.036;2024-03-06T00:50:40;3.70;99.90
15426;DHT22;7812;50.072;7.036;2024-03-06T00:53:06;3.50;99.90
15426;DHT22;7812;50.072;7.036;2024-03-06T00:55:32;3.30;99.90
15426;DHT22;7812;50.072;7.036;2024-03-06T00:57:57;3.30;99.90
15426;DHT22;7812;50.072;7.036;2024-03-06T01:00:23;3.50;99.90
15426;DHT22;7812;50.072;7.036;2024-03-06T01:02:49;3.70;99.90
15426;DHT22;7812;50.072;7.036;2024-03-06T01:05:14;3.60;99.90
15426;DHT22;7812;50.072;7.036;2024-03-06T01:07:40;3.50;99.90
15426;DHT22;7812;50.072;7.036;2024-03-06T01:10:06;3.70;99.90
15426;DHT22;7812;50.072;7.036;2024-03-06T01:12:33;3.60;99.90
15426;DHT22;7812;50.072;7.036;2024-03-06T01:14:58;3.50;99.90
15426;DHT22;7812;50.072;7.036;2024-03-06T01:17:24;3.30;99.90
15426;DHT22;7812;50.072;7.036;2024-03-06T01:19:50;3.30;99.90
15426;DHT22;7812;50.072;7.036;2024-03-06T01:22:17;3.40;99.90
15426;DHT22;7812;50.072;7.036;2024-03-06T01:24:43;3.40;99.90
15426;DHT22;7812;50.072;7.036;2024-03-06T01:27:08;3.20;99.90
15426;DHT22;7812;50.072;7.036;2024-03-06T01:29:34;3.20;99.90
15426;DHT22;7812;50.072;7.036;2024-03-06T01:32:00;3.10;99.90
15426;DHT22;7812;50.072;7.036;2024-03-06T01:34:26;3.00;99.90
15426;DHT22;7812;50.072;7.036;2024-03-06T01:36:52;2.80;99.90
15426;DHT22;7812;50.072;7.036;2024-03-06T01:39:18;2.70;99.90
15426;DHT22;7812;50.072;7.036;2024-03-06T01:41:48;2.90;99.90
15426;DHT22;7812;50.072;7.036;2024-03-06T01:44:15;3.00;99.90
15426;DHT22;7812;50.072;7.036;2024-03-06T01:46:42;3.30;99.90
15426;DHT22;7812;50.072;7.036;2024-03-06T01:49:08;3.40;99.90
15426;DHT22;7812;50.072;7.036;2024-03-06T01:51:35;3.40;99.90
15426;DHT22;7812;50.072;7.036;2024-03-06T01:54:01;3.20;99.90
15426;DHT22;7812;50.072;7.036;2024-03-06T01:56:30;3.00;99.90
15426;DHT22;7812;50.072;7.036;2024-03-06T01:58:57;2.90;99.90
15426;DHT22;7812;50.072;7.036;2024-03-06T02:01:23;2.90;99.90
15426;DHT22;7812;50.072;7.036;2024-03-06T02:03:49;2.80;99.90
15426;DHT22;7812;50.072;7.036;2024-03-06T02:06:17;2.60;99.90
15426;DHT22;7812;50.072;7.036;2024-03-06T02:08:46;2.70;99.90
15426;DHT22;7812;50.072;7.036;2024-03-06T02:11:12;2.80;99.90
15426;DHT22;7812;50.072;7.036;2024-03-06T02:13:39;2.70;99.90
15426;DHT22;7812;50.072;7.036;2024-03-06T02:16:05;2.60;99.90
15426;DHT22;7812;50.072;7.036;2024-03-06T02:18:31;2.60;99.90
15426;DHT22;7812;50.072;7.036;2024-03-06T02:20:57;3.00;99.90
15426;DHT22;7812;50.072;7.036;2024-03-06T02:23:22;3.20;99.90
15426;DHT22;7812;50.072;7.036;2024-03-06T02:25:49;3.20;99.90
15426;DHT22;7812;50.072;7.036;2024-03-06T02:28:16;3.20;99.90
15426;DHT22;7812;50.072;7.036;2024-03-06T02:30:42;3.40;99.90
15426;DHT22;7812;50.072;7.036;2024-03-06T02:33:08;3.30;99.90
15426;DHT22;7812;50.072;7.036;2024-03-06T02:35:37;3.40;99.90
15426;DHT22;7812;50.072;7.036;2024-03-06T02:38:05;3.30;99.90
15426;DHT22;7812;50.072;7.036;2024-03-06T02:40:32;3.40;99.90
15426;DHT22;7812;50.072;7.036;2024-03-06T02:42:57;3.50;99.90
15426;DHT22;7812;50.072;7.036;2024-03-06T02:45:23;3.60;99.90
15426;DHT22;7812;50.072;7.036;2024-03-06T02:47:49;3.50;99.90
15426;DHT22;7812;50.072;7.036;2024-03-06T02:50:15;3.40;99.90
15426;DHT22;7812;50.072;7.036;2024-03-06T02:52:40;3.40;99.90
15426;DHT22;7812;50.072;7.036;2024-03-06T02:55:06;3.20;99.90
15426;DHT22;7812;50.072;7.036;2024-03-06T02:57:32;3.10;99.90
15426;DHT22;7812;50.072;7.036;2024-03-06T02:59:58;3.30;99.90
15426;DHT22;7812;50.072;7.036;2024-03-06T03:02:24;3.30;99.90
15426;DHT22;7812;50.072;7.036;2024-03-06T03:04:51;3.40;99.90
15426;DHT22;7812;50.072;7.036;2024-03-06T03:07:19;3.30;99.90
15426;DHT22;7812;50.072;7.036;2024-03-06T03:09:46;3.20;99.90
15426;DHT22;7812;50.072;7.036;2024-03-06T03:12:12;3.00;99.90
15426;DHT22;7812;50.072;7.036;2024-03-06T03:14:40;3.00;99.90
15426;DHT22;7812;50.072;7.036;2024-03-06T03:17:06;2.80;99.90
15426;DHT22;7812;50.072;7.036;2024-03-06T03:19:32;2.60;99.90
15426;DHT22;7812;50.072;7.036;2024-03-06T03:21:58;2.80;99.90
15426;DHT22;7812;50.072;7.036;2024-03-06T03:24:24;2.60;99.90
15426;DHT22;7812;50.072;7.036;2024-03-06T03:26:52;2.60;99.90
15426;DHT22;7812;50.072;7.036;2024-03-06T03:29:18;2.60;99.90
15426;DHT22;7812;50.072;7.036;2024-03-06T03:31:44;2.50;99.90
15426;DHT22;7812;50.072;7.036;2024-03-06T03:34:10;2.60;99.90
15426;DHT22;7812;50.072;7.036;2024-03-06T03:36:43;2.60;99.90
15426;DHT22;7812;50.072;7.036;2024-03-06T03:39:12;2.40;99.90
15426;DHT22;7812;50.072;7.036;2024-03-06T03:41:46;2.40;99.90
15426;DHT22;7812;50.072;7.036;2024-03-06T03:44:16;2.40;99.90
15426;DHT22;7812;50.072;7.036;2024-03-06T03:46:43;2.40;99.90
15426;DHT22;7812;50.072;7.036;2024-03-06T03:49:08;2.50;99.90
15426;DHT22;7812;50.072;7.036;2024-03-06T03:51:35;2.70;99.90
15426;DHT22;7812;50.072;7.036;2024-03-06T03:54:02;2.40;99.90
15426;DHT22;7812;50.072;7.036;2024-03-06T03:56:27;2.40;99.90
15426;DHT22;7812;50.072;7.036;2024-03-06T03:58:53;2.50;99.90
15426;DHT22;7812;50.072;7.036;2024-03-06T04:01:19;2.80;99.90
15426;DHT22;7812;50.072;7.036;2024-03-06T04:03:44;2.60;99.90
15426;DHT22;7812;50.072;7.036;2024-03-06T04:06:10;2.30;99.90
15426;DHT22;7812;50.072;7.036;2024-03-06T04:08:36;2.20;99.90
15426;DHT22;7812;50.072;7.036;2024-03-06T04:11:03;2.50;99.90
15426;DHT22;7812;50.072;7.036;2024-03-06T04:13:29;2.40;99.90
15426;DHT22;7812;50.072;7.036;2024-03-06T04:15:55;2.40;99.90
15426;DHT22;7812;50.072;7.036;2024-03-06T04:18:21;2.60;99.90
15426;DHT22;7812;50.072;7.036;2024-03-06T04:20:47;2.60;99.90
15426;DHT22;7812;50.072;7.036;2024-03-06T04:23:12;2.40;99.90
15426;DHT22;7812;50.072;7.036;2024-03-06T04:25:38;2.30;99.90
15426;DHT22;7812;50.072;7.036;2024-03-06T04:28:05;2.10;99.90
15426;DHT22;7812;50.072;7.036;2024-03-06T04:30:33;2.20;99.90
15426;DHT22;7812;50.072;7.036;2024-03-06T04:32:59;2.40;99.90
15426;DHT22;7812;50.072;7.036;2024-03-06T04:35:24;2.20;99.90
15426;DHT22;7812;50.072;7.036;2024-03-06T04:37:50;2.30;99.90
15426;DHT22;7812;50.072;7.036;2024-03-06T04:40:16;2.30;99.90
15426;DHT22;7812;50.072;7.036;2024-03-06T04:42:46;2.50;99.90
15426;DHT22;7812;50.072;7.036;2024-03-06T04:45:15;2.60;99.90
15426;DHT22;7812;50.072;7.036;2024-03-06T04:47:41;2.80;99.90
15426;DHT22;7812;50.072;7.036;2024-03-06T04:50:11;3.00;99.90
15426;DHT22;7812;50.072;7.036;2024-03-06T04:52:37;3.20;99.90
15426;DHT22;7812;50.072;7.036;2024-03-06T04:55:04;3.00;99.90
15426;DHT22;7812;50.072;7.036;2024-03-06T04:57:30;2.90;99.90
15426;DHT22;7812;50.072;7.036;2024-03-06T04:59:56;2.80;99.90
15426;DHT22;7812;50.072;7.036;2024-03-06T05:02:23;2.60;99.90
15426;DHT22;7812;50.072;7.036;2024-03-06T05:04:50;2.80;99.90
15426;DHT22;7812;50.072;7.036;2024-03-06T05:07:16;2.80;99.90
15426;DHT22;7812;50.072;7.036;2024-03-06T05:09:41;2.80;99.90
15426;DHT22;7812;50.072;7.036;2024-03-06T05:12:07;2.80;99.90
15426;DHT22;7812;50.072;7.036;2024-03-06T05:14:33;2.80;99.90
15426;DHT22;7812;50.072;7.036;2024-03-06T05:16:59;2.80;99.90
15426;DHT22;7812;50.072;7.036;2024-03-06T05:19:25;2.80;99.90
15426;DHT22;7812;50.072;7.036;2024-03-06T05:21:58;2.70;99.90
15426;DHT22;7812;50.072;7.036;2024-03-06T05:24:24;2.70;99.90
15426;DHT22;7812;50.072;7.036;2024-03-06T05:26:50;2.90;99.90
15426;DHT22;7812;50.072;7.036;2024-03-06T05:29:16;3.00;99.90
15426;DHT22;7812;50.072;7.036;2024-03-06T05:31:41;3.40;99.90
15426;DHT22;7812;50.072;7.036;2024-03-06T05:34:07;3.50;99.90
15426;DHT22;7812;50.072;7.036;2024-03-06T05:36:33;3.90;99.90
15426;DHT22;7812;50.072;7.036;2024-03-06T05:38:59;4.10;99.90
15426;DHT22;7812;50.072;7.036;2024-03-06T05:41:24;4.20;99.90
15426;DHT22;7812;50.072;7.036;2024-03-06T05:43:50;4.20;99.90
15426;DHT22;7812;50.072;7.036;2024-03-06T05:46:15;3.90;99.90
15426;DHT22;7812;50.072;7.036;2024-03-06T05:48:42;3.50;99.90
15426;DHT22;7812;50.072;7.036;2024-03-06T05:51:07;3.20;99.90
15426;DHT22;7812;50.072;7.036;2024-03-06T05:53:37;3.20;99.90
15426;DHT22;7812;50.072;7.036;2024-03-06T05:56:05;3.10;99.90
15426;DHT22;7812;50.072;7.036;2024-03-06T05:58:31;3.10;99.90
15426;DHT22;7812;50.072;7.036;2024-03-06T06:00:57;3.20;99.90
15426;DHT22;7812;50.072;7.036;2024-03-06T06:03:22;2.90;99.90
15426;DHT22;7812;50.072;7.036;2024-03-06T06:05:48;2.40;99.90
15426;DHT22;7812;50.072;7.036;2024-03-06T06:08:14;2.40;99.90
15426;DHT22;7812;50.072;7.036;2024-03-06T06:10:39;2.10;99.90
15426;DHT22;7812;50.072;7.036;2024-03-06T06:13:05;1.90;99.90
15426;DHT22;7812;50.072;7.036;2024-03-06T06:15:31;1.80;99.90
15426;DHT22;7812;50.072;7.036;2024-03-06T06:17:57;1.80;99.90
15426;DHT22;7812;50.072;7.036;2024-03-06T06:20:23;2.00;99.90
15426;DHT22;7812;50.072;7.036;2024-03-06T06:22:49;2.10;99.90
15426;DHT22;7812;50.072;7.036;2024-03-06T06:25:15;2.10;99.90
15426;DHT22;7812;50.072;7.036;2024-03-06T06:27:41;2.10;99.90
15426;DHT22;7812;50.072;7.036;2024-03-06T06:30:07;2.20;99.90
15426;DHT22;7812;50.072;7.036;2024-03-06T06:32:39;2.30;99.90
15426;DHT22;7812;50.072;7.036;2024-03-06T06:35:06;2.20;99.90
15426;DHT22;7812;50.072;7.036;2024-03-06T06:37:32;2.30;99.90
15426;DHT22;7812;50.072;7.036;2024-03-06T06:39:57;2.30;99.90
15426;DHT22;7812;50.072;7.036;2024-03-06T06:42:24;2.10;99.90
15426;DHT22;7812;50.072;7.036;2024-03-06T06:44:50;1.90;99.90
15426;DHT22;7812;50.072;7.036;2024-03-06T06:47:17;1.90;99.90
15426;DHT22;7812;50.072;7.036;2024-03-06T06:49:42;2.00;99.90
15426;DHT22;7812;50.072;7.036;2024-03-06T06:52:08;2.10;99.90
15426;DHT22;7812;50.072;7.036;2024-03-06T06:54:33;2.50;99.90
15426;DHT22;7812;50.072;7.036;2024-03-06T06:56:59;2.30;99.90
15426;DHT22;7812;50.072;7.036;2024-03-06T06:59:25;2.20;99.90
15426;DHT22;7812;50.072;7.036;2024-03-06T07:01:50;2.30;99.90
15426;DHT22;7812;50.072;7.036;2024-03-06T07:04:16;2.40;99.90
15426;DHT22;7812;50.072;7.036;2024-03-06T07:06:45;2.50;99.90
15426;DHT22;7812;50.072;7.036;2024-03-06T07:09:12;2.60;99.90
15426;DHT22;7812;50.072;7.036;2024-03-06T07:11:37;2.40;99.90
15426;DHT22;7812;50.072;7.036;2024-03-06T07:14:03;2.60;99.90
15426;DHT22;7812;50.072;7.036;2024-03-06T07:16:29;2.60;99.90
15426;DHT22;7812;50.072;7.036;2024-03-06T07:18:54;2.80;99.90
15426;DHT22;7812;50.072;7.036;2024-03-06T07:21:20;2.80;99.90
15426;DHT22;7812;50.072;7.036;2024-03-06T07:23:46;2.80;99.90
15426;DHT22;7812;50.072;7.036;2024-03-06T07:26:12;2.90;99.90
15426;DHT22;7812;50.072;7.036;2024-03-06T07:28:38;2.90;99.90
15426;DHT22;7812;50.072;7.036;2024-03-06T07:31:03;2.90;99.90
15426;DHT22;7812;50.072;7.036;2024-03-06T07:33:31;2.90;99.90
15426;DHT22;7812;50.072;7.036;2024-03-06T07:35:59;3.00;99.90
15426;DHT22;7812;50.072;7.036;2024-03-06T07:38:26;3.50;99.90
15426;DHT22;7812;50.072;7.036;2024-03-06T07:40:53;3.90;99.90
15426;DHT22;7812;50.072;7.036;2024-03-06T07:43:19;4.20;99.90
15426;DHT22;7812;50.072;7.036;2024-03-06T07:45:45;4.50;99.90
15426;DHT22;7812;50.072;7.036;2024-03-06T07:48:13;4.50;99.90
15426;DHT22;7812;50.072;7.036;2024-03-06T07:50:38;4.50;99.90
15426;DHT22;7812;50.072;7.036;2024-03-06T07:53:05;5.00;99.90
15426;DHT22;7812;50.072;7.036;2024-03-06T07:55:31;5.70;99.90
15426;DHT22;7812;50.072;7.036;2024-03-06T07:57:56;7.50;99.90
15426;DHT22;7812;50.072;7.036;2024-03-06T08:00:23;9.10;99.90
15426;DHT22;7812;50.072;7.036;2024-03-06T08:02:48;10.30;99.90
15426;DHT22;7812;50.072;7.036;2024-03-06T08:05:16;11.70;99.90
15426;DHT22;7812;50.072;7.036;2024-03-06T08:07:42;11.60;99.90
15426;DHT22;7812;50.072;7.036;2024-03-06T08:10:09;11.20;99.90
15426;DHT22;7812;50.072;7.036;2024-03-06T08:12:35;13.20;99.90
15426;DHT22;7812;50.072;7.036;2024-03-06T08:15:00;15.40;99.90
15426;DHT22;7812;50.072;7.036;2024-03-06T08:17:28;16.90;99.90
15426;DHT22;7812;50.072;7.036;2024-03-06T08:19:54;16.60;99.90
15426;DHT22;7812;50.072;7.036;2024-03-06T08:22:20;15.10;99.90
15426;DHT22;7812;50.072;7.036;2024-03-06T08:24:46;14.50;99.90
15426;DHT22;7812;50.072;7.036;2024-03-06T08:27:12;15.00;99.90
15426;DHT22;7812;50.072;7.036;2024-03-06T08:29:37;15.50;99.90
15426;DHT22;7812;50.072;7.036;2024-03-06T08:32:03;16.30;99.90
15426;DHT22;7812;50.072;7.036;2024-03-06T08:34:29;16.20;99.90
15426;DHT22;7812;50.072;7.036;2024-03-06T08:36:57;17.10;99.90
15426;DHT22;7812;50.072;7.036;2024-03-06T08:39:23;17.80;99.90
15426;DHT22;7812;50.072;7.036;2024-03-06T08:41:48;18.20;99.90
15426;DHT22;7812;50.072;7.036;2024-03-06T08:44:14;19.10;99.90
15426;DHT22;7812;50.072;7.036;2024-03-06T08:46:39;18.90;99.90
15426;DHT22;7812;50.072;7.036;2024-03-06T08:49:05;15.40;99.90
15426;DHT22;7812;50.072;7.036;2024-03-06T08:51:31;15.10;99.90
15426;DHT22;7812;50.072;7.036;2024-03-06T08:53:56;12.50;99.90
15426;DHT22;7812;50.072;7.036;2024-03-06T08:56:22;13.90;99.90
15426;DHT22;7812;50.072;7.036;2024-03-06T08:58:48;15.30;99.90
15426;DHT22;7812;50.072;7.036;2024-03-06T09:01:14;17.50;99.90
15426;DHT22;7812;50.072;7.036;2024-03-06T09:03:39;18.80;99.90
15426;DHT22;7812;50.072;7.036;2024-03-06T09:06:05;16.50;99.90
15426;DHT22;7812;50.072;7.036;2024-03-06T09:08:31;18.10;99.90
15426;DHT22;7812;50.072;7.036;2024-03-06T09:10:57;18.60;99.90
15426;DHT22;7812;50.072;7.036;2024-03-06T09:13:25;14.80;99.90
15426;DHT22;7812;50.072;7.036;2024-03-06T09:15:51;14.50;99.90
15426;DHT22;7812;50.072;7.036;2024-03-06T09:18:16;14.80;99.90
15426;DHT22;7812;50.072;7.036;2024-03-06T09:20:42;14.50;99.90
15426;DHT22;7812;50.072;7.036;2024-03-06T09:23:08;14.60;99.90
15426;DHT22;7812;50.072;7.036;2024-03-06T09:25:34;16.20;99.90
15426;DHT22;7812;50.072;7.036;2024-03-06T09:28:02;16.50;99.90
15426;DHT22;7812;50.072;7.036;2024-03-06T09:30:30;15.70;99.90
15426;DHT22;7812;50.072;7.036;2024-03-06T09:32:56;15.90;99.90
15426;DHT22;7812;50.072;7.036;2024-03-06T09:35:21;16.00;99.90
15426;DHT22;7812;50.072;7.036;2024-03-06T09:37:47;15.50;99.90
15426;DHT22;7812;50.072;7.036;2024-03-06T09:40:22;15.60;99.90
15426;DHT22;7812;50.072;7.036;2024-03-06T09:42:50;15.50;99.90
15426;DHT22;7812;50.072;7.036;2024-03-06T09:45:16;17.80;99.90
15426;DHT22;7812;50.072;7.036;2024-03-06T09:47:43;19.10;99.90
15426;DHT22;7812;50.072;7.036;2024-03-06T09:50:12;19.90;99.90
15426;DHT22;7812;50.072;7.036;2024-03-06T09:52:41;19.50;99.90
15426;DHT22;7812;50.072;7.036;2024-03-06T09:55:09;17.80;99.90
15426;DHT22;7812;50.072;7.036;2024-03-06T09:57:35;18.60;99.90
15426;DHT22;7812;50.072;7.036;2024-03-06T10:00:01;16.00;99.90
15426;DHT22;7812;50.072;7.036;2024-03-06T10:02:41;15.50;99.90
15426;DHT22;7812;50.072;7.036;2024-03-06T10:05:21;18.20;99.90
15426;DHT22;7812;50.072;7.036;2024-03-06T10:07:48;20.90;99.90
15426;DHT22;7812;50.072;7.036;2024-03-06T10:10:14;21.50;99.90
15426;DHT22;7812;50.072;7.036;2024-03-06T10:12:41;22.30;99.90
15426;DHT22;7812;50.072;7.036;2024-03-06T10:15:08;19.90;99.90
15426;DHT22;7812;50.072;7.036;2024-03-06T10:17:37;17.40;99.90
15426;DHT22;7812;50.072;7.036;2024-03-06T10:20:24;16.70;99.90
15426;DHT22;7812;50.072;7.036;2024-03-06T10:22:50;17.20;99.90
15426;DHT22;7812;50.072;7.036;2024-03-06T10:25:23;18.30;99.90
15426;DHT22;7812;50.072;7.036;2024-03-06T10:28:09;20.10;99.90
15426;DHT22;7812;50.072;7.036;2024-03-06T10:30:37;21.50;99.90
15426;DHT22;7812;50.072;7.036;2024-03-06T10:33:06;21.80;99.90
15426;DHT22;7812;50.072;7.036;2024-03-06T10:35:32;20.00;99.90
15426;DHT22;7812;50.072;7.036;2024-03-06T10:38:00;19.40;99.90
15426;DHT22;7812;50.072;7.036;2024-03-06T10:40:28;18.10;99.90
15426;DHT22;7812;50.072;7.036;2024-03-06T10:42:58;19.40;99.90
15426;DHT22;7812;50.072;7.036;2024-03-06T10:45:33;19.30;99.90
15426;DHT22;7812;50.072;7.036;2024-03-06T10:48:02;19.00;99.90
15426;DHT22;7812;50.072;7.036;2024-03-06T10:50:29;20.20;99.90
15426;DHT22;7812;50.072;7.036;2024-03-06T10:52:55;19.00;99.90
15426;DHT22;7812;50.072;7.036;2024-03-06T10:55:22;17.80;99.90
15426;DHT22;7812;50.072;7.036;2024-03-06T10:57:49;17.60;99.90
15426;DHT22;7812;50.072;7.036;2024-03-06T11:00:17;17.00;99.90
15426;DHT22;7812;50.072;7.036;2024-03-06T11:02:46;16.80;99.90
15426;DHT22;7812;50.072;7.036;2024-03-06T11:05:14;16.50;99.90
15426;DHT22;7812;50.072;7.036;2024-03-06T11:07:40;16.50;99.90
15426;DHT22;7812;50.072;7.036;2024-03-06T11:10:06;17.00;99.90
15426;DHT22;7812;50.072;7.036;2024-03-06T11:12:39;18.30;99.90
15426;DHT22;7812;50.072;7.036;2024-03-06T11:15:17;16.90;99.90
15426;DHT22;7812;50.072;7.036;2024-03-06T11:17:43;17.10;99.90
15426;DHT22;7812;50.072;7.036;2024-03-06T11:20:13;17.50;99.90
15426;DHT22;7812;50.072;7.036;2024-03-06T11:28:14;17.50;99.90
15426;DHT22;7812;50.072;7.036;2024-03-06T11:33:14;19.50;97.70
15426;DHT22;7812;50.072;7.036;2024-03-06T11:36:14;19.30;97.20
15426;DHT22;7812;50.072;7.036;2024-03-06T11:38:41;18.20;98.40
15426;DHT22;7812;50.072;7.036;2024-03-06T11:41:06;17.40;99.90
15426;DHT22;7812;50.072;7.036;2024-03-06T11:43:42;18.50;99.40
15426;DHT22;7812;50.072;7.036;2024-03-06T11:46:09;17.60;97.20
15426;DHT22;7812;50.072;7.036;2024-03-06T11:48:38;18.30;98.40
15426;DHT22;7812;50.072;7.036;2024-03-06T11:51:05;19.10;97.30
15426;DHT22;7812;50.072;7.036;2024-03-06T11:53:33;18.80;98.50
15426;DHT22;7812;50.072;7.036;2024-03-06T11:55:58;18.40;98.50
15426;DHT22;7812;50.072;7.036;2024-03-06T11:58:24;18.50;98.60
15426;DHT22;7812;50.072;7.036;2024-03-06T12:00:51;18.20;98.70
15426;DHT22;7812;50.072;7.036;2024-03-06T12:03:17;18.60;98.50
15426;DHT22;7812;50.072;7.036;2024-03-06T12:05:44;18.50;98.90
15426;DHT22;7812;50.072;7.036;2024-03-06T12:08:11;16.90;99.80
15426;DHT22;7812;50.072;7.036;2024-03-06T12:10:38;17.30;99.90
15426;DHT22;7812;50.072;7.036;2024-03-06T12:13:05;18.50;99.20
15426;DHT22;7812;50.072;7.036;2024-03-06T12:15:31;19.00;99.10
15426;DHT22;7812;50.072;7.036;2024-03-06T12:17:57;20.10;98.90
15426;DHT22;7812;50.072;7.036;2024-03-06T12:20:24;22.10;97.10
15426;DHT22;7812;50.072;7.036;2024-03-06T12:22:51;20.70;95.90
15426;DHT22;7812;50.072;7.036;2024-03-06T12:25:22;21.90;97.70
15426;DHT22;7812;50.072;7.036;2024-03-06T12:27:48;23.30;94.80
15426;DHT22;7812;50.072;7.036;2024-03-06T12:30:18;22.10;93.30
15426;DHT22;7812;50.072;7.036;2024-03-06T12:32:44;22.00;93.00
15426;DHT22;7812;50.072;7.036;2024-03-06T12:35:10;22.10;93.70
15426;DHT22;7812;50.072;7.036;2024-03-06T12:37:36;22.80;92.40
15426;DHT22;7812;50.072;7.036;2024-03-06T12:40:02;23.20;93.10
15426;DHT22;7812;50.072;7.036;2024-03-06T12:42:30;23.60;91.50
15426;DHT22;7812;50.072;7.036;2024-03-06T12:44:56;24.10;90.80
15426;DHT22;7812;50.072;7.036;2024-03-06T12:47:22;23.50;81.70
15426;DHT22;7812;50.072;7.036;2024-03-06T12:49:48;22.40;78.60
15426;DHT22;7812;50.072;7.036;2024-03-06T12:52:13;20.80;79.70
15426;DHT22;7812;50.072;7.036;2024-03-06T12:54:39;19.50;90.00
15426;DHT22;7812;50.072;7.036;2024-03-06T12:57:05;20.90;88.60
15426;DHT22;7812;50.072;7.036;2024-03-06T12:59:31;22.00;89.50
15426;DHT22;7812;50.072;7.036;2024-03-06T13:01:56;22.20;85.20
15426;DHT22;7812;50.072;7.036;2024-03-06T13:04:22;22.70;87.70
15426;DHT22;7812;50.072;7.036;2024-03-06T13:06:48;23.20;87.80
15426;DHT22;7812;50.072;7.036;2024-03-06T13:09:14;22.90;84.90
15426;DHT22;7812;50.072;7.036;2024-03-06T13:11:40;21.60;86.30
15426;DHT22;7812;50.072;7.036;2024-03-06T13:14:07;20.50;84.20
15426;DHT22;7812;50.072;7.036;2024-03-06T13:16:35;19.00;87.30
15426;DHT22;7812;50.072;7.036;2024-03-06T13:19:01;18.70;90.60
15426;DHT22;7812;50.072;7.036;2024-03-06T13:21:29;18.70;88.80
15426;DHT22;7812;50.072;7.036;2024-03-06T13:23:54;18.10;90.00
15426;DHT22;7812;50.072;7.036;2024-03-06T13:26:20;18.50;91.30
15426;DHT22;7812;50.072;7.036;2024-03-06T13:28:46;18.80;90.10
15426;DHT22;7812;50.072;7.036;2024-03-06T13:31:12;19.00;90.40
15426;DHT22;7812;50.072;7.036;2024-03-06T13:33:38;19.50;89.70
15426;DHT22;7812;50.072;7.036;2024-03-06T13:36:04;18.90;90.50
15426;DHT22;7812;50.072;7.036;2024-03-06T13:38:29;18.90;89.90
15426;DHT22;7812;50.072;7.036;2024-03-06T13:40:55;19.10;90.60
15426;DHT22;7812;50.072;7.036;2024-03-06T13:43:21;19.50;89.00
15426;DHT22;7812;50.072;7.036;2024-03-06T13:45:50;17.90;91.90
15426;DHT22;7812;50.072;7.036;2024-03-06T13:48:15;18.30;91.90
15426;DHT22;7812;50.072;7.036;2024-03-06T13:50:43;18.90;91.10
15426;DHT22;7812;50.072;7.036;2024-03-06T13:53:10;19.00;90.10
15426;DHT22;7812;50.072;7.036;2024-03-06T13:55:35;19.00;90.30
15426;DHT22;7812;50.072;7.036;2024-03-06T13:58:01;18.40;91.70
15426;DHT22;7812;50.072;7.036;2024-03-06T14:00:28;17.90;91.20
15426;DHT22;7812;50.072;7.036;2024-03-06T14:02:53;17.00;91.90
15426;DHT22;7812;50.072;7.036;2024-03-06T14:05:19;16.20;92.80
15426;DHT22;7812;50.072;7.036;2024-03-06T14:07:50;15.70;94.70
15426;DHT22;7812;50.072;7.036;2024-03-06T14:10:16;15.40;95.00
15426;DHT22;7812;50.072;7.036;2024-03-06T14:12:45;14.70;95.70
15426;DHT22;7812;50.072;7.036;2024-03-06T14:15:10;14.70;95.00
15426;DHT22;7812;50.072;7.036;2024-03-06T14:17:38;14.90;98.00
15426;DHT22;7812;50.072;7.036;2024-03-06T14:20:04;15.30;95.80
15426;DHT22;7812;50.072;7.036;2024-03-06T14:22:30;15.70;96.30
15426;DHT22;7812;50.072;7.036;2024-03-06T14:24:55;16.00;95.60
15426;DHT22;7812;50.072;7.036;2024-03-06T14:27:21;16.10;95.50
15426;DHT22;7812;50.072;7.036;2024-03-06T14:29:47;16.10;94.90
15426;DHT22;7812;50.072;7.036;2024-03-06T14:32:13;15.80;94.60
15426;DHT22;7812;50.072;7.036;2024-03-06T14:34:39;15.50;95.80
15426;DHT22;7812;50.072;7.036;2024-03-06T14:37:05;15.10;95.40
15426;DHT22;7812;50.072;7.036;2024-03-06T14:39:30;15.10;95.60
15426;DHT22;7812;50.072;7.036;2024-03-06T14:41:56;15.10;96.30
15426;DHT22;7812;50.072;7.036;2024-03-06T14:44:22;14.90;96.80
15426;DHT22;7812;50.072;7.036;2024-03-06T14:46:47;15.00;95.90
15426;DHT22;7812;50.072;7.036;2024-03-06T14:49:13;15.00;96.20
15426;DHT22;7812;50.072;7.036;2024-03-06T14:51:41;14.90;96.30
15426;DHT22;7812;50.072;7.036;2024-03-06T14:54:07;14.70;98.00
15426;DHT22;7812;50.072;7.036;2024-03-06T14:56:32;14.60;96.90
15426;DHT22;7812;50.072;7.036;2024-03-06T14:58:58;14.40;96.60
15426;DHT22;7812;50.072;7.036;2024-03-06T15:01:24;14.40;97.40
15426;DHT22;7812;50.072;7.036;2024-03-06T15:03:51;14.20;97.70
15426;DHT22;7812;50.072;7.036;2024-03-06T15:06:17;14.10;98.80
15426;DHT22;7812;50.072;7.036;2024-03-06T15:08:43;14.10;98.30
15426;DHT22;7812;50.072;7.036;2024-03-06T15:11:10;14.10;98.80
15426;DHT22;7812;50.072;7.036;2024-03-06T15:13:36;14.20;98.00
15426;DHT22;7812;50.072;7.036;2024-03-06T15:16:02;14.10;98.30
15426;DHT22;7812;50.072;7.036;2024-03-06T15:18:29;14.20;97.50
15426;DHT22;7812;50.072;7.036;2024-03-06T15:20:55;14.10;97.80
15426;DHT22;7812;50.072;7.036;2024-03-06T15:23:21;14.20;99.10
15426;DHT22;7812;50.072;7.036;2024-03-06T15:25:47;14.20;99.00
15426;DHT22;7812;50.072;7.036;2024-03-06T15:28:12;14.20;98.40
15426;DHT22;7812;50.072;7.036;2024-03-06T15:30:38;14.30;97.90
15426;DHT22;7812;50.072;7.036;2024-03-06T15:33:04;14.20;98.60
15426;DHT22;7812;50.072;7.036;2024-03-06T15:35:30;14.20;99.90
15426;DHT22;7812;50.072;7.036;2024-03-06T15:37:56;14.20;99.60
15426;DHT22;7812;50.072;7.036;2024-03-06T15:40:22;14.20;97.60
15426;DHT22;7812;50.072;7.036;2024-03-06T15:42:48;14.10;99.90
15426;DHT22;7812;50.072;7.036;2024-03-06T15:45:13;14.10;99.90
15426;DHT22;7812;50.072;7.036;2024-03-06T15:47:39;14.20;98.30
15426;DHT22;7812;50.072;7.036;2024-03-06T15:50:09;14.10;97.90
15426;DHT22;7812;50.072;7.036;2024-03-06T15:52:39;14.10;99.20
15426;DHT22;7812;50.072;7.036;2024-03-06T15:55:08;13.90;98.60
15426;DHT22;7812;50.072;7.036;2024-03-06T15:57:35;13.80;99.90
15426;DHT22;7812;50.072;7.036;2024-03-06T16:00:06;13.80;98.50